Addison, Alabama
Current Conditions -  °F | °C
As of 11:55 AM on Friday 21 Nov 2014 (Local Time) from KCMD Reporting Station
Clear Clear  
Wind Chill: 14°   Ceiling: Unl
Heat Index: 14°   Visibility: 10mi
Dew Point: -1°   Wind: 5mph
Humidity: 38%   Direction: 120°ESE
Pressure: 30.39"   Gusts: NA
Location:  34.2°N, 87.18°W
Report Text: KCMD 211755Z AUTO 12004KT 10SM CLR 14/M01 A3039 RMK AO2 T01351006
Loading
Personal Weather Stations






























Interactive Weather Map New forecast layout! Learn more

10-Day Weather Forecast

Advertisements
Track Severe Weather on mobile